aviador You're here:

K2DP Decoded Metar

STUMPY POINT in NC, USA
Report Time2018-07-17 00:56:00
UTC Time2018-07-17 01:58:54
Flight Rules vfr VFR
Wind190° at 05 kt
W.Rank190° ranks 8
Current wind is below 190° avg. (7.7)
Visibility9999 m
Phenomena:N/A
Clouds:Few 015 Hf
Few 100 Hf
Broken 220 Hf
Expected CloudBase > 1,200 ft AGL from Temp-Dew spread
Ceiling22,000 ft
Temp27°C (ISA +12)
Dew Point24°C (84% RH)
Heat Index30.1°C
QNH1016 hPa
Density Alt1,686 ft
Elevation10 ft
Report Wrong Elevation
Raw Report
K2DP 170056Z AUTO 19005KT 10SM FEW015 FEW100 BKN220 27/24 A3001
RMK AO2 SLPNO T02650237 $=

Extra information for K2DP:More info

Metar Taf Metar & Taf Last 4 Metars F.Rules Stats Wind Profile Meteogram Temp Stats Airport Information Weather charts Add Link Nearby VenuesMetar ALERT Operation Metar Decoded Social comments

AIRNAV info for K2DP